KAWG

Washington Municipal Airport

Washington, Iowa, USA
METAR KAWG 152215Z AUTO 27009KT 3SM -RA OVC031 24/23 A2986 RMK AO2
Observed Flight Rules
Aug-15 @ 22:15 UTC (11 minutes ago) Marginal Visual Flight Rules
Wind Visibility Clouds Conditions
270° at 9 knots 3 miles
  • Overcast at 3,100' AGL
  • Light Rain
Temperatures Readings
Current 24°C / 75°F
Dewpoint 23°C / 73°F
Humidity 94%
Altimeter 29.86" Hg
Pressure 1011 hPa
Elevation 230
METAR KAWG 152215Z AUTO 27009KT 3SM -RA OVC031 24/23 A2986 RMK AO2
Observed Flight Rules
Aug-15 @ 22:15 UTC
(11 minutes ago)
MVFR
Wind Visibility
270° at 9 knots 3 miles
Clouds
  • Overcast at 3,100' AGL
Conditions
  • Light Rain
Temperature Dewpoint
24°C / 75°F 23°C / 73°F
Humidity Altimeter Pressure
94% 29.86" Hg 1011 hPa